sensor_id;sensor_type;location;lat;lon;timestamp;pressure;altitude;pressure_sealevel;temperature;humidity
70240;BME280;57629;52.256;10.414;2022-11-15T00:00:18;100433.44;;;18.84;43.24
70240;BME280;57629;52.256;10.414;2022-11-15T00:01:18;100444.31;;;18.83;43.13
70240;BME280;57629;52.256;10.414;2022-11-15T00:02:19;100444.31;;;18.83;42.95
70240;BME280;57629;52.256;10.414;2022-11-15T00:03:21;100444.31;;;18.83;43.13
70240;BME280;57629;52.256;10.414;2022-11-15T00:04:22;100438.97;;;18.83;43.13
70240;BME280;57629;52.256;10.414;2022-11-15T00:05:24;100438.19;;;18.82;43.24
70240;BME280;57629;52.256;10.414;2022-11-15T00:06:25;100432.84;;;18.82;43.04
70240;BME280;57629;52.256;10.414;2022-11-15T00:07:25;100440.84;;;18.82;43.11
70240;BME280;57629;52.256;10.414;2022-11-15T00:08:29;100442.69;;;18.82;42.98
70240;BME280;57629;52.256;10.414;2022-11-15T00:09:29;100436.31;;;18.83;42.96
70240;BME280;57629;52.256;10.414;2022-11-15T00:10:30;100430.19;;;18.82;42.98
70240;BME280;57629;52.256;10.414;2022-11-15T00:11:30;100432.06;;;18.82;43.06
70240;BME280;57629;52.256;10.414;2022-11-15T00:12:31;100441.91;;;18.81;42.91
70240;BME280;57629;52.256;10.414;2022-11-15T00:13:32;100437.38;;;18.82;43.18
70240;BME280;57629;52.256;10.414;2022-11-15T00:14:32;100435.78;;;18.81;42.91
70240;BME280;57629;52.256;10.414;2022-11-15T00:15:35;100444.56;;;18.81;42.96
70240;BME280;57629;52.256;10.414;2022-11-15T00:16:35;100436.56;;;18.81;43.02
70240;BME280;57629;52.256;10.414;2022-11-15T00:17:36;100435.78;;;18.81;42.97
70240;BME280;57629;52.256;10.414;2022-11-15T00:18:37;100441.91;;;18.81;42.92
70240;BME280;57629;52.256;10.414;2022-11-15T00:19:38;100446.41;;;18.81;43.00
70240;BME280;57629;52.256;10.414;2022-11-15T00:20:40;100434.94;;;18.80;43.02
70240;BME280;57629;52.256;10.414;2022-11-15T00:21:41;100445.59;;;18.80;42.93
70240;BME280;57629;52.256;10.414;2022-11-15T00:22:41;100431.47;;;18.80;42.85
70240;BME280;57629;52.256;10.414;2022-11-15T00:23:42;100443.75;;;18.81;42.96
70240;BME280;57629;52.256;10.414;2022-11-15T00:24:43;100434.94;;;18.80;42.76
70240;BME280;57629;52.256;10.414;2022-11-15T00:25:43;100442.94;;;18.80;42.79
70240;BME280;57629;52.256;10.414;2022-11-15T00:26:44;100440.25;;;18.80;42.90
70240;BME280;57629;52.256;10.414;2022-11-15T00:27:44;100431.47;;;18.80;42.77
70240;BME280;57629;52.256;10.414;2022-11-15T00:28:45;100430.69;;;18.79;42.97
70240;BME280;57629;52.256;10.414;2022-11-15T00:29:46;100433.34;;;18.79;42.82
70240;BME280;57629;52.256;10.414;2022-11-15T00:30:47;100438.66;;;18.79;43.06
70240;BME280;57629;52.256;10.414;2022-11-15T00:31:47;100443.75;;;18.81;42.90
70240;BME280;57629;52.256;10.414;2022-11-15T00:32:48;100432.28;;;18.80;42.93
70240;BME280;57629;52.256;10.414;2022-11-15T00:33:48;100434.94;;;18.80;42.72
70240;BME280;57629;52.256;10.414;2022-11-15T00:34:49;100439.47;;;18.80;42.96
70240;BME280;57629;52.256;10.414;2022-11-15T00:35:51;100434.94;;;18.80;42.67
70240;BME280;57629;52.256;10.414;2022-11-15T00:36:52;100431.47;;;18.80;42.86
70240;BME280;57629;52.256;10.414;2022-11-15T00:37:52;100429.63;;;18.80;42.70
70240;BME280;57629;52.256;10.414;2022-11-15T00:38:53;100446.41;;;18.81;42.87
70240;BME280;57629;52.256;10.414;2022-11-15T00:39:54;100428.03;;;18.79;42.73
70240;BME280;57629;52.256;10.414;2022-11-15T00:40:54;100436.00;;;18.79;42.82
70240;BME280;57629;52.256;10.414;2022-11-15T00:41:55;100442.38;;;18.78;42.78
70240;BME280;57629;52.256;10.414;2022-11-15T00:42:56;100426.41;;;18.78;42.75
70240;BME280;57629;52.256;10.414;2022-11-15T00:43:56;100438.66;;;18.79;42.73
70240;BME280;57629;52.256;10.414;2022-11-15T00:44:57;100429.63;;;18.80;42.79
70240;BME280;57629;52.256;10.414;2022-11-15T00:45:58;100430.91;;;18.78;42.72
70240;BME280;57629;52.256;10.414;2022-11-15T00:46:58;100432.53;;;18.79;42.91
70240;BME280;57629;52.256;10.414;2022-11-15T00:47:59;100430.91;;;18.78;42.81
70240;BME280;57629;52.256;10.414;2022-11-15T00:49:03;100440.53;;;18.79;42.63
70240;BME280;57629;52.256;10.414;2022-11-15T00:50:04;100437.88;;;18.79;42.77
70240;BME280;57629;52.256;10.414;2022-11-15T00:51:06;100443.19;;;18.79;42.84
70240;BME280;57629;52.256;10.414;2022-11-15T00:52:07;100446.88;;;18.78;42.67
70240;BME280;57629;52.256;10.414;2022-11-15T00:53:07;100438.91;;;18.78;42.74
70240;BME280;57629;52.256;10.414;2022-11-15T00:54:08;100430.91;;;18.78;42.63
70240;BME280;57629;52.256;10.414;2022-11-15T00:55:09;100436.22;;;18.78;42.61
70240;BME280;57629;52.256;10.414;2022-11-15T00:56:13;100436.22;;;18.78;42.81
70240;BME280;57629;52.256;10.414;2022-11-15T00:57:14;100424.78;;;18.77;42.71
70240;BME280;57629;52.256;10.414;2022-11-15T00:58:14;100426.41;;;18.78;42.68
70240;BME280;57629;52.256;10.414;2022-11-15T00:59:15;100425.59;;;18.78;42.78
70240;BME280;57629;52.256;10.414;2022-11-15T01:00:16;100428.25;;;18.78;42.81
70240;BME280;57629;52.256;10.414;2022-11-15T01:01:17;100420.28;;;18.78;42.78
70240;BME280;57629;52.256;10.414;2022-11-15T01:02:17;100429.31;;;18.77;42.69
70240;BME280;57629;52.256;10.414;2022-11-15T01:03:18;100422.13;;;18.77;42.61
70240;BME280;57629;52.256;10.414;2022-11-15T01:04:19;100419.47;;;18.77;42.80
70240;BME280;57629;52.256;10.414;2022-11-15T01:05:19;100416.00;;;18.77;42.71
70240;BME280;57629;52.256;10.414;2022-11-15T01:06:22;100410.69;;;18.77;42.67
70240;BME280;57629;52.256;10.414;2022-11-15T01:07:22;100417.03;;;18.76;42.49
70240;BME280;57629;52.256;10.414;2022-11-15T01:08:23;100416.00;;;18.77;42.63
70240;BME280;57629;52.256;10.414;2022-11-15T01:09:24;100416.00;;;18.77;42.70
70240;BME280;57629;52.256;10.414;2022-11-15T01:10:24;100416.00;;;18.77;42.60
70240;BME280;57629;52.256;10.414;2022-11-15T01:11:25;100416.00;;;18.77;42.56
70240;BME280;57629;52.256;10.414;2022-11-15T01:12:26;100413.34;;;18.77;42.60
70240;BME280;57629;52.256;10.414;2022-11-15T01:13:29;100412.53;;;18.76;42.63
70240;BME280;57629;52.256;10.414;2022-11-15T01:14:30;100410.69;;;18.77;42.70
70240;BME280;57629;52.256;10.414;2022-11-15T01:15:31;100414.38;;;18.76;42.64
70240;BME280;57629;52.256;10.414;2022-11-15T01:16:31;100413.34;;;18.77;42.54
70240;BME280;57629;52.256;10.414;2022-11-15T01:17:32;100417.03;;;18.76;42.68
70240;BME280;57629;52.256;10.414;2022-11-15T01:18:32;100418.66;;;18.77;42.54
70240;BME280;57629;52.256;10.414;2022-11-15T01:19:33;100409.88;;;18.76;42.57
70240;BME280;57629;52.256;10.414;2022-11-15T01:20:34;100411.72;;;18.76;42.68
70240;BME280;57629;52.256;10.414;2022-11-15T01:21:36;100406.41;;;18.76;42.53
70240;BME280;57629;52.256;10.414;2022-11-15T01:22:37;100408.22;;;18.75;42.56
70240;BME280;57629;52.256;10.414;2022-11-15T01:23:37;100404.75;;;18.75;42.54
70240;BME280;57629;52.256;10.414;2022-11-15T01:24:38;100410.88;;;18.75;42.70
70240;BME280;57629;52.256;10.414;2022-11-15T01:25:39;100400.25;;;18.75;42.47
70240;BME280;57629;52.256;10.414;2022-11-15T01:26:39;100402.91;;;18.75;42.42
70240;BME280;57629;52.256;10.414;2022-11-15T01:27:40;100401.06;;;18.76;42.48
70240;BME280;57629;52.256;10.414;2022-11-15T01:28:41;100405.56;;;18.75;42.43
70240;BME280;57629;52.256;10.414;2022-11-15T01:29:42;100404.75;;;18.75;42.53
70240;BME280;57629;52.256;10.414;2022-11-15T01:30:43;100404.75;;;18.75;42.55
70240;BME280;57629;52.256;10.414;2022-11-15T01:31:44;100405.56;;;18.75;42.41
70240;BME280;57629;52.256;10.414;2022-11-15T01:32:44;100408.22;;;18.75;42.39
70240;BME280;57629;52.256;10.414;2022-11-15T01:33:45;100410.09;;;18.75;42.38
70240;BME280;57629;52.256;10.414;2022-11-15T01:34:46;100409.28;;;18.74;42.39
70240;BME280;57629;52.256;10.414;2022-11-15T01:35:47;100415.41;;;18.75;42.20
70240;BME280;57629;52.256;10.414;2022-11-15T01:36:49;100407.44;;;18.75;42.48
70240;BME280;57629;52.256;10.414;2022-11-15T01:37:49;100412.75;;;18.75;42.51
70240;BME280;57629;52.256;10.414;2022-11-15T01:38:53;100406.63;;;18.74;42.44
70240;BME280;57629;52.256;10.414;2022-11-15T01:39:54;100403.97;;;18.74;42.36
70240;BME280;57629;52.256;10.414;2022-11-15T01:40:54;100403.97;;;18.74;42.34
70240;BME280;57629;52.256;10.414;2022-11-15T01:41:55;100402.34;;;18.73;42.34
70240;BME280;57629;52.256;10.414;2022-11-15T01:42:56;100401.31;;;18.74;42.34
70240;BME280;57629;52.256;10.414;2022-11-15T01:43:58;100406.63;;;18.74;42.44
70240;BME280;57629;52.256;10.414;2022-11-15T01:45:19;100390.91;;;18.72;42.39
70240;BME280;57629;52.256;10.414;2022-11-15T01:46:25;100390.91;;;18.72;42.29
70240;BME280;57629;52.256;10.414;2022-11-15T01:47:30;100394.34;;;18.73;42.21
70240;BME280;57629;52.256;10.414;2022-11-15T01:48:33;100396.22;;;18.72;42.30
70240;BME280;57629;52.256;10.414;2022-11-15T01:49:35;100392.75;;;18.72;42.36
70240;BME280;57629;52.256;10.414;2022-11-15T01:50:38;100390.09;;;18.72;42.21
70240;BME280;57629;52.256;10.414;2022-11-15T01:51:39;100390.91;;;18.72;42.32
70240;BME280;57629;52.256;10.414;2022-11-15T01:52:41;100397.00;;;18.73;42.21
70240;BME280;57629;52.256;10.414;2022-11-15T01:53:44;100392.53;;;18.73;42.27
70240;BME280;57629;52.256;10.414;2022-11-15T01:54:46;100385.56;;;18.72;42.34
70240;BME280;57629;52.256;10.414;2022-11-15T01:55:47;100382.13;;;18.72;42.08
70240;BME280;57629;52.256;10.414;2022-11-15T01:56:52;100384.78;;;18.72;42.32
70240;BME280;57629;52.256;10.414;2022-11-15T01:57:57;100384.78;;;18.72;42.37
70240;BME280;57629;52.256;10.414;2022-11-15T01:59:00;100376.78;;;18.72;42.13
70240;BME280;57629;52.256;10.414;2022-11-15T02:00:05;100382.91;;;18.72;42.14
70240;BME280;57629;52.256;10.414;2022-11-15T02:01:07;100374.13;;;18.72;42.20
70240;BME280;57629;52.256;10.414;2022-11-15T02:02:08;100374.13;;;18.72;42.26
70240;BME280;57629;52.256;10.414;2022-11-15T02:03:09;100373.34;;;18.71;42.30
70240;BME280;57629;52.256;10.414;2022-11-15T02:04:14;100376.78;;;18.72;42.38
70240;BME280;57629;52.256;10.414;2022-11-15T02:05:16;100374.13;;;18.72;42.25
70240;BME280;57629;52.256;10.414;2022-11-15T02:06:16;100368.81;;;18.72;42.15
70240;BME280;57629;52.256;10.414;2022-11-15T02:07:19;100371.47;;;18.72;42.30
70240;BME280;57629;52.256;10.414;2022-11-15T02:08:20;100373.34;;;18.71;42.29
70240;BME280;57629;52.256;10.414;2022-11-15T02:09:21;100370.69;;;18.71;42.18
70240;BME280;57629;52.256;10.414;2022-11-15T02:10:23;100368.00;;;18.71;42.37
70240;BME280;57629;52.256;10.414;2022-11-15T02:11:24;100367.22;;;18.71;42.20
70240;BME280;57629;52.256;10.414;2022-11-15T02:12:25;100367.22;;;18.71;42.10
70240;BME280;57629;52.256;10.414;2022-11-15T02:13:25;100366.38;;;18.70;42.12
70240;BME280;57629;52.256;10.414;2022-11-15T02:14:28;100366.16;;;18.72;42.15
70240;BME280;57629;52.256;10.414;2022-11-15T02:15:36;100361.91;;;18.71;42.27
70240;BME280;57629;52.256;10.414;2022-11-15T02:16:50;100361.91;;;18.71;42.26
70240;BME280;57629;52.256;10.414;2022-11-15T02:18:07;100364.56;;;18.71;42.26
70240;BME280;57629;52.256;10.414;2022-11-15T02:19:21;100362.91;;;18.70;42.23
70240;BME280;57629;52.256;10.414;2022-11-15T02:20:42;100355.75;;;18.70;42.15
70240;BME280;57629;52.256;10.414;2022-11-15T02:21:46;100357.38;;;18.71;42.18
70240;BME280;57629;52.256;10.414;2022-11-15T02:23:12;100352.06;;;18.71;42.36
70240;BME280;57629;52.256;10.414;2022-11-15T02:24:36;100345.94;;;18.71;42.25
70240;BME280;57629;52.256;10.414;2022-11-15T02:25:55;100349.41;;;18.71;42.13
70240;BME280;57629;52.256;10.414;2022-11-15T02:28:53;100344.88;;;18.72;42.45
70240;BME280;57629;52.256;10.414;2022-11-15T02:30:12;100341.41;;;18.71;42.34
70240;BME280;57629;52.256;10.414;2022-11-15T02:31:20;100339.56;;;18.72;42.38
70240;BME280;57629;52.256;10.414;2022-11-15T02:32:32;100337.97;;;18.71;42.23
70240;BME280;57629;52.256;10.414;2022-11-15T02:33:39;100334.47;;;18.70;42.41
70240;BME280;57629;52.256;10.414;2022-11-15T02:34:50;100337.13;;;18.70;42.41
70240;BME280;57629;52.256;10.414;2022-11-15T02:35:59;100335.03;;;18.72;42.24
70240;BME280;57629;52.256;10.414;2022-11-15T02:37:03;100341.41;;;18.71;42.28
70240;BME280;57629;52.256;10.414;2022-11-15T02:38:11;100334.47;;;18.70;42.28
70240;BME280;57629;52.256;10.414;2022-11-15T02:39:20;100337.97;;;18.71;42.33
70240;BME280;57629;52.256;10.414;2022-11-15T02:40:29;100333.44;;;18.71;42.36
70240;BME280;57629;52.256;10.414;2022-11-15T02:41:35;100323.03;;;18.70;42.34
70240;BME280;57629;52.256;10.414;2022-11-15T02:42:43;100331.81;;;18.70;42.31
70240;BME280;57629;52.256;10.414;2022-11-15T02:43:47;100331.81;;;18.70;42.44
70240;BME280;57629;52.256;10.414;2022-11-15T02:44:49;100328.34;;;18.70;42.26
70240;BME280;57629;52.256;10.414;2022-11-15T02:45:58;100329.16;;;18.70;42.45
70240;BME280;57629;52.256;10.414;2022-11-15T02:47:03;100320.38;;;18.70;42.35
70240;BME280;57629;52.256;10.414;2022-11-15T02:48:07;100333.66;;;18.70;42.49
70240;BME280;57629;52.256;10.414;2022-11-15T02:49:08;100331.81;;;18.70;42.41
70240;BME280;57629;52.256;10.414;2022-11-15T02:50:10;100334.47;;;18.70;42.27
70240;BME280;57629;52.256;10.414;2022-11-15T02:51:11;100336.31;;;18.70;42.21
70240;BME280;57629;52.256;10.414;2022-11-15T02:52:14;100338.19;;;18.69;42.21
70240;BME280;57629;52.256;10.414;2022-11-15T02:53:15;100337.38;;;18.69;42.23
70240;BME280;57629;52.256;10.414;2022-11-15T02:54:21;100341.66;;;18.70;42.31
70240;BME280;57629;52.256;10.414;2022-11-15T02:55:27;100337.38;;;18.69;42.43
70240;BME280;57629;52.256;10.414;2022-11-15T02:56:28;100339.78;;;18.70;42.30
70240;BME280;57629;52.256;10.414;2022-11-15T02:57:39;100336.31;;;18.70;42.42
70240;BME280;57629;52.256;10.414;2022-11-15T02:59:09;100335.53;;;18.69;42.23
70240;BME280;57629;52.256;10.414;2022-11-15T03:00:14;100332.06;;;18.69;42.36
70240;BME280;57629;52.256;10.414;2022-11-15T03:01:26;100331.25;;;18.68;42.30
70240;BME280;57629;52.256;10.414;2022-11-15T03:02:42;100329.41;;;18.69;42.19
70240;BME280;57629;52.256;10.414;2022-11-15T03:03:52;100327.53;;;18.69;42.36
70240;BME280;57629;52.256;10.414;2022-11-15T03:04:59;100325.94;;;18.68;42.31
70240;BME280;57629;52.256;10.414;2022-11-15T03:06:10;100328.59;;;18.68;42.38
70240;BME280;57629;52.256;10.414;2022-11-15T03:07:19;100327.53;;;18.69;42.28
70240;BME280;57629;52.256;10.414;2022-11-15T03:08:31;100329.41;;;18.69;42.36
70240;BME280;57629;52.256;10.414;2022-11-15T03:09:35;100325.94;;;18.68;42.43
70240;BME280;57629;52.256;10.414;2022-11-15T03:10:45;100324.09;;;18.69;42.20
70240;BME280;57629;52.256;10.414;2022-11-15T03:11:54;100323.28;;;18.68;42.37
70240;BME280;57629;52.256;10.414;2022-11-15T03:12:59;100321.44;;;18.69;42.35
70240;BME280;57629;52.256;10.414;2022-11-15T03:14:10;100321.66;;;18.67;42.36
70240;BME280;57629;52.256;10.414;2022-11-15T03:15:20;100329.41;;;18.69;42.23
70240;BME280;57629;52.256;10.414;2022-11-15T03:16:27;100325.13;;;18.68;42.23
70240;BME280;57629;52.256;10.414;2022-11-15T03:17:32;100328.59;;;18.68;42.41
70240;BME280;57629;52.256;10.414;2022-11-15T03:18:37;100325.13;;;18.68;42.31
70240;BME280;57629;52.256;10.414;2022-11-15T03:19:43;100328.59;;;18.68;42.30
70240;BME280;57629;52.256;10.414;2022-11-15T03:20:44;100324.31;;;18.67;42.24
70240;BME280;57629;52.256;10.414;2022-11-15T03:21:47;100322.22;;;18.69;42.36
70240;BME280;57629;52.256;10.414;2022-11-15T03:22:50;100332.06;;;18.69;42.41
70240;BME280;57629;52.256;10.414;2022-11-15T03:23:52;100325.13;;;18.68;42.32
70240;BME280;57629;52.256;10.414;2022-11-15T03:24:57;100327.78;;;18.68;42.29
70240;BME280;57629;52.256;10.414;2022-11-15T03:25:59;100324.31;;;18.67;42.44
70240;BME280;57629;52.256;10.414;2022-11-15T03:27:01;100329.41;;;18.69;42.29
70240;BME280;57629;52.256;10.414;2022-11-15T03:28:05;100328.59;;;18.68;42.28
70240;BME280;57629;52.256;10.414;2022-11-15T03:29:11;100328.59;;;18.68;42.30
70240;BME280;57629;52.256;10.414;2022-11-15T03:30:13;100325.94;;;18.68;42.35
70240;BME280;57629;52.256;10.414;2022-11-15T03:31:15;100319.78;;;18.68;42.33
70240;BME280;57629;52.256;10.414;2022-11-15T03:32:23;100330.44;;;18.68;42.23
70240;BME280;57629;52.256;10.414;2022-11-15T03:33:26;100319.00;;;18.67;42.38
70240;BME280;57629;52.256;10.414;2022-11-15T03:34:32;100311.81;;;18.68;42.23
70240;BME280;57629;52.256;10.414;2022-11-15T03:35:37;100313.69;;;18.67;42.36
70240;BME280;57629;52.256;10.414;2022-11-15T03:36:39;100304.66;;;18.68;42.32
70240;BME280;57629;52.256;10.414;2022-11-15T03:37:42;100303.84;;;18.68;42.35
70240;BME280;57629;52.256;10.414;2022-11-15T03:38:45;100311.00;;;18.67;42.17
70240;BME280;57629;52.256;10.414;2022-11-15T03:39:46;100306.50;;;18.68;42.24
70240;BME280;57629;52.256;10.414;2022-11-15T03:40:51;100306.50;;;18.68;42.35
70240;BME280;57629;52.256;10.414;2022-11-15T03:42:04;100303.84;;;18.68;42.31
70240;BME280;57629;52.256;10.414;2022-11-15T03:43:14;100308.34;;;18.67;42.42
70240;BME280;57629;52.256;10.414;2022-11-15T03:44:22;100306.50;;;18.68;42.36
70240;BME280;57629;52.256;10.414;2022-11-15T03:45:29;100310.00;;;18.68;42.24
70240;BME280;57629;52.256;10.414;2022-11-15T03:46:33;100315.31;;;18.68;42.22
70240;BME280;57629;52.256;10.414;2022-11-15T03:47:39;100314.47;;;18.68;42.36
70240;BME280;57629;52.256;10.414;2022-11-15T03:48:46;100315.31;;;18.68;42.45
70240;BME280;57629;52.256;10.414;2022-11-15T03:49:52;100316.34;;;18.67;42.46
70240;BME280;57629;52.256;10.414;2022-11-15T03:50:53;100325.13;;;18.68;42.25
70240;BME280;57629;52.256;10.414;2022-11-15T03:51:56;100322.44;;;18.68;42.17
70240;BME280;57629;52.256;10.414;2022-11-15T03:52:57;100323.50;;;18.67;42.31
70240;BME280;57629;52.256;10.414;2022-11-15T03:53:59;100322.44;;;18.68;42.46
70240;BME280;57629;52.256;10.414;2022-11-15T03:55:01;100318.19;;;18.67;42.22
70240;BME280;57629;52.256;10.414;2022-11-15T03:56:03;100319.78;;;18.68;42.28
70240;BME280;57629;52.256;10.414;2022-11-15T03:57:04;100332.28;;;18.67;42.42
70240;BME280;57629;52.256;10.414;2022-11-15T03:58:04;100326.97;;;18.67;42.28
70240;BME280;57629;52.256;10.414;2022-11-15T03:59:05;100324.31;;;18.67;42.48
70240;BME280;57629;52.256;10.414;2022-11-15T04:00:07;100325.38;;;18.66;42.28
70240;BME280;57629;52.256;10.414;2022-11-15T04:01:08;100333.09;;;18.68;42.36
70240;BME280;57629;52.256;10.414;2022-11-15T04:02:08;100333.09;;;18.68;42.39
70240;BME280;57629;52.256;10.414;2022-11-15T04:03:10;100334.97;;;18.67;42.35
70240;BME280;57629;52.256;10.414;2022-11-15T04:04:11;100334.16;;;18.67;42.48
70240;BME280;57629;52.256;10.414;2022-11-15T04:05:11;100327.78;;;18.68;42.23
70240;BME280;57629;52.256;10.414;2022-11-15T04:06:12;100334.97;;;18.67;42.32
70240;BME280;57629;52.256;10.414;2022-11-15T04:07:13;100318.19;;;18.67;42.29
70240;BME280;57629;52.256;10.414;2022-11-15T04:08:13;100322.72;;;18.66;42.26
70240;BME280;57629;52.256;10.414;2022-11-15T04:09:14;100323.50;;;18.67;42.29
70240;BME280;57629;52.256;10.414;2022-11-15T04:10:15;100328.03;;;18.66;42.33
70240;BME280;57629;52.256;10.414;2022-11-15T04:11:16;100323.50;;;18.67;42.30
70240;BME280;57629;52.256;10.414;2022-11-15T04:12:16;100330.44;;;18.68;42.38
70240;BME280;57629;52.256;10.414;2022-11-15T04:13:17;100332.28;;;18.67;42.46
70240;BME280;57629;52.256;10.414;2022-11-15T04:14:18;100336.00;;;18.66;42.37
70240;BME280;57629;52.256;10.414;2022-11-15T04:15:20;100340.28;;;18.67;42.36
70240;BME280;57629;52.256;10.414;2022-11-15T04:16:20;100344.78;;;18.67;42.28
70240;BME280;57629;52.256;10.414;2022-11-15T04:17:21;100342.94;;;18.67;42.27
70240;BME280;57629;52.256;10.414;2022-11-15T04:18:23;100340.53;;;18.66;42.41
70240;BME280;57629;52.256;10.414;2022-11-15T04:19:24;100339.47;;;18.67;42.18
70240;BME280;57629;52.256;10.414;2022-11-15T04:20:26;100341.34;;;18.66;42.37
70240;BME280;57629;52.256;10.414;2022-11-15T04:21:26;100344.00;;;18.66;42.45
70240;BME280;57629;52.256;10.414;2022-11-15T04:22:27;100341.34;;;18.66;42.47
70240;BME280;57629;52.256;10.414;2022-11-15T04:23:28;100341.34;;;18.66;42.33
70240;BME280;57629;52.256;10.414;2022-11-15T04:24:28;100341.34;;;18.66;42.39
70240;BME280;57629;52.256;10.414;2022-11-15T04:25:29;100339.47;;;18.67;42.43
70240;BME280;57629;52.256;10.414;2022-11-15T04:26:30;100340.53;;;18.66;42.32
70240;BME280;57629;52.256;10.414;2022-11-15T04:27:30;100335.22;;;18.66;42.15
70240;BME280;57629;52.256;10.414;2022-11-15T04:28:31;100344.78;;;18.67;42.31
70240;BME280;57629;52.256;10.414;2022-11-15T04:29:32;100350.91;;;18.67;42.28
70240;BME280;57629;52.256;10.414;2022-11-15T04:30:32;100347.44;;;18.67;42.29
70240;BME280;57629;52.256;10.414;2022-11-15T04:31:33;100352.78;;;18.67;42.23
70240;BME280;57629;52.256;10.414;2022-11-15T04:32:33;100341.34;;;18.66;42.45
70240;BME280;57629;52.256;10.414;2022-11-15T04:33:35;100350.13;;;18.67;42.35
70240;BME280;57629;52.256;10.414;2022-11-15T04:34:36;100349.31;;;18.66;42.23
70240;BME280;57629;52.256;10.414;2022-11-15T04:35:36;100346.66;;;18.66;42.28
70240;BME280;57629;52.256;10.414;2022-11-15T04:36:37;100351.16;;;18.66;42.17
70240;BME280;57629;52.256;10.414;2022-11-15T04:37:38;100353.84;;;18.66;42.34
70240;BME280;57629;52.256;10.414;2022-11-15T04:38:39;100348.50;;;18.66;42.32
70240;BME280;57629;52.256;10.414;2022-11-15T04:39:39;100346.66;;;18.66;42.34
70240;BME280;57629;52.256;10.414;2022-11-15T04:40:40;100348.50;;;18.66;42.21
70240;BME280;57629;52.256;10.414;2022-11-15T04:41:41;100351.97;;;18.66;42.40
70240;BME280;57629;52.256;10.414;2022-11-15T04:42:42;100345.84;;;18.66;42.38
70240;BME280;57629;52.256;10.414;2022-11-15T04:43:42;100347.69;;;18.65;42.27
70240;BME280;57629;52.256;10.414;2022-11-15T04:44:43;100345.03;;;18.65;42.13
70240;BME280;57629;52.256;10.414;2022-11-15T04:45:44;100340.53;;;18.66;42.26
70240;BME280;57629;52.256;10.414;2022-11-15T04:46:44;100342.38;;;18.65;42.14
70240;BME280;57629;52.256;10.414;2022-11-15T04:47:45;100336.25;;;18.65;42.21
70240;BME280;57629;52.256;10.414;2022-11-15T04:48:47;100340.53;;;18.66;42.21
70240;BME280;57629;52.256;10.414;2022-11-15T04:49:48;100337.88;;;18.66;42.29
70240;BME280;57629;52.256;10.414;2022-11-15T04:50:49;100339.72;;;18.65;42.25
70240;BME280;57629;52.256;10.414;2022-11-15T04:51:49;100332.56;;;18.66;42.26
70240;BME280;57629;52.256;10.414;2022-11-15T04:52:51;100342.38;;;18.65;42.31
70240;BME280;57629;52.256;10.414;2022-11-15T04:53:52;100340.53;;;18.66;42.18
70240;BME280;57629;52.256;10.414;2022-11-15T04:54:53;100343.19;;;18.66;42.21
70240;BME280;57629;52.256;10.414;2022-11-15T04:55:53;100348.50;;;18.66;42.32
70240;BME280;57629;52.256;10.414;2022-11-15T04:56:54;100345.84;;;18.66;42.26
70240;BME280;57629;52.256;10.414;2022-11-15T04:57:58;100337.88;;;18.66;42.32
70240;BME280;57629;52.256;10.414;2022-11-15T04:58:59;100345.03;;;18.65;42.32
70240;BME280;57629;52.256;10.414;2022-11-15T04:59:59;100345.84;;;18.66;42.39
70240;BME280;57629;52.256;10.414;2022-11-15T05:01:06;100350.34;;;18.65;42.31
70240;BME280;57629;52.256;10.414;2022-11-15T05:02:07;100339.72;;;18.65;42.36
70240;BME280;57629;52.256;10.414;2022-11-15T05:03:09;100347.69;;;18.65;42.45
70240;BME280;57629;52.256;10.414;2022-11-15T05:04:11;100349.53;;;18.65;42.24
70240;BME280;57629;52.256;10.414;2022-11-15T05:05:12;100345.03;;;18.65;42.45
70240;BME280;57629;52.256;10.414;2022-11-15T05:06:12;100348.75;;;18.64;42.19
70240;BME280;57629;52.256;10.414;2022-11-15T05:07:13;100345.03;;;18.65;42.21
70240;BME280;57629;52.256;10.414;2022-11-15T05:08:13;100342.38;;;18.65;42.15
70240;BME280;57629;52.256;10.414;2022-11-15T05:09:14;100346.88;;;18.65;42.42
70240;BME280;57629;52.256;10.414;2022-11-15T05:10:15;100348.75;;;18.64;42.21
70240;BME280;57629;52.256;10.414;2022-11-15T05:11:15;100351.41;;;18.64;42.44
70240;BME280;57629;52.256;10.414;2022-11-15T05:12:16;100346.09;;;18.64;42.49
70240;BME280;57629;52.256;10.414;2022-11-15T05:13:17;100360.97;;;18.65;42.42
70240;BME280;57629;52.256;10.414;2022-11-15T05:14:17;100346.88;;;18.65;42.23
70240;BME280;57629;52.256;10.414;2022-11-15T05:15:18;100343.41;;;18.64;42.44
70240;BME280;57629;52.256;10.414;2022-11-15T05:16:18;100347.69;;;18.65;42.25
70240;BME280;57629;52.256;10.414;2022-11-15T05:17:19;100348.75;;;18.64;42.31
70240;BME280;57629;52.256;10.414;2022-11-15T05:18:20;100340.75;;;18.64;42.39
70240;BME280;57629;52.256;10.414;2022-11-15T05:19:22;100341.56;;;18.65;42.40
70240;BME280;57629;52.256;10.414;2022-11-15T05:20:23;100341.56;;;18.65;42.25
70240;BME280;57629;52.256;10.414;2022-11-15T05:21:24;100341.56;;;18.65;42.30
70240;BME280;57629;52.256;10.414;2022-11-15T05:22:25;100343.41;;;18.64;42.29
70240;BME280;57629;52.256;10.414;2022-11-15T05:23:25;100344.22;;;18.65;42.46
70240;BME280;57629;52.256;10.414;2022-11-15T05:24:26;100346.09;;;18.64;42.25
70240;BME280;57629;52.256;10.414;2022-11-15T05:25:26;100348.50;;;18.66;42.45
70240;BME280;57629;52.256;10.414;2022-11-15T05:26:27;100348.75;;;18.64;42.32